Time;durP1;ratioP1;P1;durP2;ratioP2;P2;SDS_P1;SDS_P2;PMS_P1;PMS_P2;Temp;Humidity;BMP_temperature;BMP_pressure;BME280_temperature;BME280_humidity;BME280_pressure;Samples;Min_cycle;Max_cycle;Signal;HPM_P1;HPM_P2
2021/01/15 00:02:14;;;;;;;0.20;0.20;;;;;;;;;;4954326;28;20030;-79
2021/01/15 00:04:40;;;;;;;0.00;0.00;;;;;;;;;;4971725;28;20043;-81
2021/01/15 00:07:06;;;;;;;0.03;0.03;;;;;;;;;;4952963;28;20038;-78
2021/01/15 00:09:32;;;;;;;1.08;1.08;;;;;;;;;;4968069;28;20117;-79
2021/01/15 00:11:58;;;;;;;0.10;0.10;;;;;;;;;;4953684;28;20036;-78
2021/01/15 00:14:24;;;;;;;0.03;0.03;;;;;;;;;;4965978;28;20042;-78
2021/01/15 00:16:54;;;;;;;0.10;0.10;;;;;;;;;;4970339;28;20468;-79
2021/01/15 00:19:20;;;;;;;0.00;0.00;;;;;;;;;;4968215;28;20077;-79
2021/01/15 00:21:48;;;;;;;0.20;0.20;;;;;;;;;;4983676;28;20574;-79
2021/01/15 00:24:18;;;;;;;0.00;0.00;;;;;;;;;;4969103;28;20026;-80
2021/01/15 00:26:44;;;;;;;0.00;0.00;;;;;;;;;;4983004;28;20057;-81
2021/01/15 00:29:11;;;;;;;0.00;0.00;;;;;;;;;;4952272;28;20015;-79
2021/01/15 00:31:38;;;;;;;0.00;0.00;;;;;;;;;;4962906;28;20033;-79
2021/01/15 00:34:04;;;;;;;0.00;0.00;;;;;;;;;;4979682;28;20038;-81
2021/01/15 00:36:30;;;;;;;0.00;0.00;;;;;;;;;;4953561;28;20030;-79
2021/01/15 00:38:56;;;;;;;0.00;0.00;;;;;;;;;;4982144;28;20056;-79
2021/01/15 00:41:22;;;;;;;0.00;0.00;;;;;;;;;;4984293;28;20522;-78
2021/01/15 00:43:48;;;;;;;0.00;0.00;;;;;;;;;;4983290;28;20129;-81
2021/01/15 00:46:27;;;;;;;0.00;0.00;;;;;;;;;;4968628;28;20124;-81
2021/01/15 00:48:53;;;;;;;0.30;0.20;;;;;;;;;;4979992;28;20035;-79
2021/01/15 00:51:19;;;;;;;0.00;0.00;;;;;;;;;;4971451;28;20058;-80
2021/01/15 00:53:45;;;;;;;0.00;0.00;;;;;;;;;;4958130;28;20570;-79
2021/01/15 00:56:11;;;;;;;0.03;0.03;;;;;;;;;;4958673;28;20085;-79
2021/01/15 00:58:37;;;;;;;0.00;0.00;;;;;;;;;;4995844;28;20483;-78
2021/01/15 01:01:03;;;;;;;0.00;0.00;;;;;;;;;;4992662;28;20026;-79
2021/01/15 01:03:29;;;;;;;0.00;0.00;;;;;;;;;;4991499;28;20029;-81
2021/01/15 01:05:55;;;;;;;0.00;0.00;;;;;;;;;;4988286;28;20038;-80
2021/01/15 01:08:21;;;;;;;0.00;0.00;;;;;;;;;;4990693;28;20092;-83
2021/01/15 01:10:47;;;;;;;0.00;0.00;;;;;;;;;;4956138;28;20487;-79
2021/01/15 01:13:14;;;;;;;0.00;0.00;;;;;;;;;;4963062;28;20036;-81
2021/01/15 01:15:43;;;;;;;0.00;0.00;;;;;;;;;;4988788;28;20031;-80
2021/01/15 01:18:10;;;;;;;0.00;0.00;;;;;;;;;;4974192;28;20038;-79
2021/01/15 01:20:36;;;;;;;0.03;0.03;;;;;;;;;;4988110;28;20053;-78
2021/01/15 01:23:02;;;;;;;0.10;0.10;;;;;;;;;;4973359;28;20406;-79
2021/01/15 01:25:28;;;;;;;0.00;0.00;;;;;;;;;;4962028;28;20030;-78
2021/01/15 01:27:54;;;;;;;0.00;0.00;;;;;;;;;;4958821;28;20061;-78
2021/01/15 01:30:20;;;;;;;0.00;0.00;;;;;;;;;;4958996;28;20403;-76
2021/01/15 01:32:46;;;;;;;0.00;0.00;;;;;;;;;;4991056;28;20034;-80
2021/01/15 01:35:12;;;;;;;0.00;0.00;;;;;;;;;;4971444;28;20034;-77
2021/01/15 01:37:38;;;;;;;0.00;0.00;;;;;;;;;;4991457;28;20029;-77
2021/01/15 01:40:05;;;;;;;0.08;0.08;;;;;;;;;;4990597;28;20022;-79
2021/01/15 01:42:31;;;;;;;0.00;0.00;;;;;;;;;;4958339;28;20030;-79
2021/01/15 01:44:57;;;;;;;0.00;0.00;;;;;;;;;;4955146;28;20030;-78
2021/01/15 01:47:23;;;;;;;0.13;0.13;;;;;;;;;;4961191;28;20038;-81
2021/01/15 01:49:49;;;;;;;0.00;0.00;;;;;;;;;;4985674;28;20034;-80
2021/01/15 01:52:15;;;;;;;0.20;0.20;;;;;;;;;;4987057;28;20026;-80
2021/01/15 01:54:41;;;;;;;0.70;0.70;;;;;;;;;;4980009;28;20446;-80
2021/01/15 01:57:07;;;;;;;1.85;0.45;;;;;;;;;;4987584;28;20022;-79
2021/01/15 01:59:34;;;;;;;0.00;0.00;;;;;;;;;;4970574;28;20033;-79
2021/01/15 02:02:00;;;;;;;0.00;0.00;;;;;;;;;;4953882;28;20286;-81
2021/01/15 02:04:26;;;;;;;0.30;0.30;;;;;;;;;;4949718;28;20121;-81
2021/01/15 02:06:52;;;;;;;0.00;0.00;;;;;;;;;;4952723;28;20116;-79
2021/01/15 02:09:21;;;;;;;21.13;1.55;;;;;;;;;;4951425;28;20026;-79
2021/01/15 02:11:52;;;;;;;0.30;0.30;;;;;;;;;;4979036;28;20380;-80
2021/01/15 02:14:21;;;;;;;0.00;0.00;;;;;;;;;;4977188;28;20031;-80
2021/01/15 02:16:48;;;;;;;0.00;0.00;;;;;;;;;;4984613;28;20065;-79
2021/01/15 02:19:23;;;;;;;0.10;0.10;;;;;;;;;;4954823;28;20022;-79
2021/01/15 02:22:15;;;;;;;0.00;0.00;;;;;;;;;;4970399;28;20444;-79
2021/01/15 02:25:01;;;;;;;0.05;0.05;;;;;;;;;;4967245;28;20040;-79
2021/01/15 02:27:46;;;;;;;0.80;0.55;;;;;;;;;;4974186;28;20680;-80
2021/01/15 02:30:31;;;;;;;0.52;0.52;;;;;;;;;;4966476;28;20081;-80
2021/01/15 02:33:04;;;;;;;0.00;0.00;;;;;;;;;;4988551;28;20045;-79
2021/01/15 02:35:50;;;;;;;0.00;0.00;;;;;;;;;;4982811;28;20027;-80
2021/01/15 02:38:19;;;;;;;0.00;0.00;;;;;;;;;;4946931;28;20045;-80
2021/01/15 02:41:04;;;;;;;0.00;0.00;;;;;;;;;;4980744;28;20439;-79
2021/01/15 02:43:31;;;;;;;0.00;0.00;;;;;;;;;;4987771;28;20506;-80
2021/01/15 02:45:57;;;;;;;0.00;0.00;;;;;;;;;;4983101;28;20038;-83
2021/01/15 02:48:23;;;;;;;0.00;0.00;;;;;;;;;;4956020;28;20030;-81
2021/01/15 02:50:49;;;;;;;0.03;0.03;;;;;;;;;;4983423;28;20035;-82
2021/01/15 02:53:15;;;;;;;0.00;0.00;;;;;;;;;;4963710;28;20029;-80
2021/01/15 02:55:41;;;;;;;0.40;0.40;;;;;;;;;;4984241;28;20125;-82
2021/01/15 02:58:07;;;;;;;0.30;0.30;;;;;;;;;;4970422;28;20030;-80
2021/01/15 03:00:34;;;;;;;0.03;0.03;;;;;;;;;;4982458;28;20030;-81
2021/01/15 03:03:10;;;;;;;0.10;0.10;;;;;;;;;;4969487;28;20038;-80
2021/01/15 03:05:54;;;;;;;0.08;0.08;;;;;;;;;;4980679;28;20044;-79
2021/01/15 03:08:20;;;;;;;0.00;0.00;;;;;;;;;;4987464;28;20130;-83
2021/01/15 03:10:46;;;;;;;0.00;0.00;;;;;;;;;;4983191;28;20121;-79
2021/01/15 03:13:13;;;;;;;0.00;0.00;;;;;;;;;;4987663;28;20537;-79
2021/01/15 03:15:38;;;;;;;0.05;0.05;;;;;;;;;;4952900;28;20487;-78
2021/01/15 03:18:05;;;;;;;1.15;1.10;;;;;;;;;;4965316;28;20054;-78
2021/01/15 03:20:31;;;;;;;0.20;0.20;;;;;;;;;;4966926;28;20026;-81
2021/01/15 03:22:57;;;;;;;0.00;0.00;;;;;;;;;;4968811;28;20065;-81
2021/01/15 03:25:23;;;;;;;0.13;0.13;;;;;;;;;;4983993;28;20415;-78
2021/01/15 03:27:49;;;;;;;0.00;0.00;;;;;;;;;;4982440;28;20098;-79
2021/01/15 03:30:15;;;;;;;0.00;0.00;;;;;;;;;;4981819;28;20325;-78
2021/01/15 03:32:42;;;;;;;0.00;0.00;;;;;;;;;;4966866;28;20491;-80
2021/01/15 03:35:08;;;;;;;0.00;0.00;;;;;;;;;;4981160;28;20027;-80
2021/01/15 03:37:34;;;;;;;0.13;0.13;;;;;;;;;;4979751;28;20479;-81
2021/01/15 03:40:01;;;;;;;0.00;0.00;;;;;;;;;;4950387;28;20043;-80
2021/01/15 03:42:27;;;;;;;0.10;0.10;;;;;;;;;;4982756;28;20039;-77
2021/01/15 03:44:53;;;;;;;0.50;0.50;;;;;;;;;;4964686;28;20495;-77
2021/01/15 03:47:19;;;;;;;0.00;0.00;;;;;;;;;;4982630;28;20038;-77
2021/01/15 03:49:45;;;;;;;0.10;0.10;;;;;;;;;;4966403;28;20062;-78
2021/01/15 03:52:11;;;;;;;0.00;0.00;;;;;;;;;;4980198;28;20030;-78
2021/01/15 03:54:37;;;;;;;0.00;0.00;;;;;;;;;;4965939;28;20403;-78
2021/01/15 03:57:04;;;;;;;0.00;0.00;;;;;;;;;;4962693;28;20146;-79
2021/01/15 03:59:30;;;;;;;0.10;0.10;;;;;;;;;;4977628;28;20452;-79
2021/01/15 04:01:56;;;;;;;0.00;0.00;;;;;;;;;;4976873;28;20260;-81
2021/01/15 04:04:22;;;;;;;0.00;0.00;;;;;;;;;;4961987;28;20514;-79
2021/01/15 04:06:48;;;;;;;0.32;0.32;;;;;;;;;;4977676;28;20448;-79
2021/01/15 04:09:15;;;;;;;0.05;0.05;;;;;;;;;;4981910;28;20038;-80
2021/01/15 04:11:41;;;;;;;1.45;0.90;;;;;;;;;;4963446;28;20069;-78
2021/01/15 04:14:08;;;;;;;0.00;0.00;;;;;;;;;;4983342;28;20034;-81
2021/01/15 04:16:34;;;;;;;0.13;0.13;;;;;;;;;;4978491;28;20478;-79
2021/01/15 04:19:00;;;;;;;0.38;0.38;;;;;;;;;;4945231;28;20035;-79
2021/01/15 04:21:26;;;;;;;0.00;0.00;;;;;;;;;;4963298;28;20030;-78
2021/01/15 04:23:52;;;;;;;0.00;0.00;;;;;;;;;;4943781;28;20319;-79
2021/01/15 04:26:18;;;;;;;0.00;0.00;;;;;;;;;;4963122;28;20038;-79
2021/01/15 04:28:45;;;;;;;0.00;0.00;;;;;;;;;;4973147;28;20487;-78
2021/01/15 04:31:11;;;;;;;0.00;0.00;;;;;;;;;;4961901;28;20117;-78
2021/01/15 04:33:37;;;;;;;0.00;0.00;;;;;;;;;;4948835;28;20034;-79
2021/01/15 04:36:03;;;;;;;0.63;0.63;;;;;;;;;;4983993;28;20121;-80
2021/01/15 04:38:29;;;;;;;0.00;0.00;;;;;;;;;;4950212;28;20022;-80
2021/01/15 04:40:58;;;;;;;0.20;0.20;;;;;;;;;;4978785;28;20031;-84
2021/01/15 04:43:24;;;;;;;0.00;0.00;;;;;;;;;;4958475;28;20085;-87
2021/01/15 04:45:52;;;;;;;0.00;0.00;;;;;;;;;;4966258;28;20073;-85
2021/01/15 04:48:18;;;;;;;0.00;0.00;;;;;;;;;;4956321;28;20040;-80
2021/01/15 04:50:44;;;;;;;0.00;0.00;;;;;;;;;;4979513;28;20030;-79
2021/01/15 04:53:10;;;;;;;0.00;0.00;;;;;;;;;;4968198;28;20026;-79
2021/01/15 04:55:38;;;;;;;0.00;0.00;;;;;;;;;;4982030;28;20379;-79
2021/01/15 04:58:04;;;;;;;0.00;0.00;;;;;;;;;;4966431;28;20046;-79
2021/01/15 05:00:30;;;;;;;0.00;0.00;;;;;;;;;;4980402;28;20096;-79
2021/01/15 05:02:56;;;;;;;0.00;0.00;;;;;;;;;;4978830;28;20741;-80
2021/01/15 05:05:29;;;;;;;0.00;0.00;;;;;;;;;;4956309;28;20030;-79
2021/01/15 05:08:07;;;;;;;0.00;0.00;;;;;;;;;;4975402;28;20057;-79
2021/01/15 05:10:33;;;;;;;0.00;0.00;;;;;;;;;;4962960;28;20038;-79
2021/01/15 05:12:59;;;;;;;0.00;0.00;;;;;;;;;;4966520;28;20038;-80
2021/01/15 05:15:25;;;;;;;0.00;0.00;;;;;;;;;;4983610;28;20511;-80
2021/01/15 05:17:51;;;;;;;0.00;0.00;;;;;;;;;;4982616;28;20089;-79
2021/01/15 05:20:17;;;;;;;0.00;0.00;;;;;;;;;;4989902;28;20030;-79
2021/01/15 05:22:44;;;;;;;0.00;0.00;;;;;;;;;;4949343;28;20041;-79
2021/01/15 05:25:10;;;;;;;0.00;0.00;;;;;;;;;;4966092;28;20137;-78
2021/01/15 05:27:39;;;;;;;0.00;0.00;;;;;;;;;;4952735;28;20530;-78
2021/01/15 05:30:15;;;;;;;0.05;0.05;;;;;;;;;;4978207;28;20562;-78
2021/01/15 05:32:41;;;;;;;0.00;0.00;;;;;;;;;;4983780;28;20088;-79
2021/01/15 05:35:08;;;;;;;0.00;0.00;;;;;;;;;;4951155;28;20030;-78
2021/01/15 05:37:34;;;;;;;0.00;0.00;;;;;;;;;;4982089;28;20022;-79
2021/01/15 05:40:00;;;;;;;0.00;0.00;;;;;;;;;;4968245;28;20077;-80
2021/01/15 05:42:27;;;;;;;0.08;0.08;;;;;;;;;;4986422;28;20077;-79
2021/01/15 05:44:53;;;;;;;0.00;0.00;;;;;;;;;;4987049;28;20103;-80
2021/01/15 05:47:19;;;;;;;0.00;0.00;;;;;;;;;;4991663;28;20328;-79
2021/01/15 05:49:55;;;;;;;0.00;0.00;;;;;;;;;;4991772;28;20089;-81
2021/01/15 05:52:21;;;;;;;0.00;0.00;;;;;;;;;;4957445;28;20396;-79
2021/01/15 05:54:47;;;;;;;0.00;0.00;;;;;;;;;;4970344;28;20140;-76
2021/01/15 05:57:13;;;;;;;0.00;0.00;;;;;;;;;;4978234;28;20503;-77
2021/01/15 05:59:39;;;;;;;0.00;0.00;;;;;;;;;;4985430;28;20038;-78
2021/01/15 06:02:08;;;;;;;0.00;0.00;;;;;;;;;;4953134;28;20034;-78
2021/01/15 06:04:40;;;;;;;0.00;0.00;;;;;;;;;;4966857;28;20041;-78
2021/01/15 06:07:10;;;;;;;2.15;0.57;;;;;;;;;;4966326;28;20049;-76
2021/01/15 06:09:39;;;;;;;0.00;0.00;;;;;;;;;;4986110;28;20210;-77
2021/01/15 06:12:06;;;;;;;0.00;0.00;;;;;;;;;;4968844;28;20041;-81
2021/01/15 06:14:32;;;;;;;0.00;0.00;;;;;;;;;;4965944;28;20039;-77
2021/01/15 06:17:07;;;;;;;0.00;0.00;;;;;;;;;;4983142;28;20030;-78
2021/01/15 06:19:48;;;;;;;0.00;0.00;;;;;;;;;;4971056;28;20033;-78
2021/01/15 06:22:35;;;;;;;0.00;0.00;;;;;;;;;;4967828;28;20073;-78
2021/01/15 06:25:08;;;;;;;0.00;0.00;;;;;;;;;;4981128;28;20541;-78
2021/01/15 06:27:35;;;;;;;0.00;0.00;;;;;;;;;;4982025;28;20039;-79
2021/01/15 06:30:02;;;;;;;0.10;0.10;;;;;;;;;;4970911;28;20057;-77
2021/01/15 06:32:28;;;;;;;0.00;0.00;;;;;;;;;;4983802;28;20264;-77
2021/01/15 06:34:54;;;;;;;0.00;0.00;;;;;;;;;;4984383;28;20112;-79
2021/01/15 06:37:21;;;;;;;0.00;0.00;;;;;;;;;;4986543;28;20022;-77
2021/01/15 06:40:20;;;;;;;0.00;0.00;;;;;;;;;;4984780;28;20034;-78
2021/01/15 06:42:46;;;;;;;0.00;0.00;;;;;;;;;;4954358;28;20039;-78
2021/01/15 06:45:13;;;;;;;0.00;0.00;;;;;;;;;;4968066;28;20314;-77
2021/01/15 06:47:40;;;;;;;0.00;0.00;;;;;;;;;;4985048;28;20045;-78
2021/01/15 06:50:07;;;;;;;0.00;0.00;;;;;;;;;;4966001;28;20479;-78
2021/01/15 06:52:33;;;;;;;0.00;0.00;;;;;;;;;;4971156;28;20030;-78
2021/01/15 06:55:00;;;;;;;0.00;0.00;;;;;;;;;;4982243;28;20058;-76
2021/01/15 06:57:26;;;;;;;0.00;0.00;;;;;;;;;;4979279;28;20026;-79
2021/01/15 06:59:52;;;;;;;0.00;0.00;;;;;;;;;;4968274;28;20034;-79
2021/01/15 07:02:27;;;;;;;0.00;0.00;;;;;;;;;;4968359;28;20057;-79
2021/01/15 07:04:56;;;;;;;0.00;0.00;;;;;;;;;;4965823;28;20056;-80
2021/01/15 07:07:22;;;;;;;0.00;0.00;;;;;;;;;;4982081;28;20034;-78
2021/01/15 07:09:49;;;;;;;0.00;0.00;;;;;;;;;;4965458;28;20045;-78
2021/01/15 07:12:15;;;;;;;0.00;0.00;;;;;;;;;;4952090;28;20030;-79
2021/01/15 07:14:58;;;;;;;0.00;0.00;;;;;;;;;;4968911;28;20053;-81
2021/01/15 07:17:30;;;;;;;0.00;0.00;;;;;;;;;;4969816;28;20392;-79
2021/01/15 07:20:04;;;;;;;0.00;0.00;;;;;;;;;;4970261;28;20053;-83
2021/01/15 07:22:33;;;;;;;0.00;0.00;;;;;;;;;;4965778;28;20137;-79
2021/01/15 07:24:59;;;;;;;0.00;0.00;;;;;;;;;;4953167;28;20042;-79
2021/01/15 07:27:26;;;;;;;0.00;0.00;;;;;;;;;;4950935;28;20466;-80
2021/01/15 07:29:52;;;;;;;0.00;0.00;;;;;;;;;;4964642;28;20026;-78
2021/01/15 07:32:21;;;;;;;0.05;0.05;;;;;;;;;;4966632;28;20406;-78
2021/01/15 07:34:51;;;;;;;0.00;0.00;;;;;;;;;;4978307;28;20457;-76
2021/01/15 07:37:22;;;;;;;0.00;0.00;;;;;;;;;;4963885;28;20073;-76
2021/01/15 07:40:12;;;;;;;0.00;0.00;;;;;;;;;;4963755;28;20042;-78
2021/01/15 07:42:47;;;;;;;0.00;0.00;;;;;;;;;;4966017;28;20057;-78
2021/01/15 07:45:26;;;;;;;0.00;0.00;;;;;;;;;;4980785;28;20034;-76
2021/01/15 07:47:52;;;;;;;0.00;0.00;;;;;;;;;;4964132;28;20399;-77
2021/01/15 07:50:27;;;;;;;0.00;0.00;;;;;;;;;;4979412;28;20409;-76
2021/01/15 07:53:06;;;;;;;0.00;0.00;;;;;;;;;;4963650;28;20107;-77
2021/01/15 07:55:45;;;;;;;0.00;0.00;;;;;;;;;;4963121;28;20104;-76
2021/01/15 07:58:11;;;;;;;0.00;0.00;;;;;;;;;;4983071;28;20049;-75
2021/01/15 08:00:37;;;;;;;0.00;0.00;;;;;;;;;;4978825;28;20129;-76
2021/01/15 08:03:04;;;;;;;0.00;0.00;;;;;;;;;;4982050;28;20038;-77
2021/01/15 08:05:30;;;;;;;0.00;0.00;;;;;;;;;;4948804;28;20133;-76
2021/01/15 08:08:06;;;;;;;0.00;0.00;;;;;;;;;;4967104;28;20110;-76
2021/01/15 08:10:32;;;;;;;0.00;0.00;;;;;;;;;;4981177;28;20036;-76
2021/01/15 08:12:58;;;;;;;0.00;0.00;;;;;;;;;;4967800;28;20041;-75
2021/01/15 08:15:31;;;;;;;0.00;0.00;;;;;;;;;;4966869;28;20022;-77
2021/01/15 08:17:57;;;;;;;0.00;0.00;;;;;;;;;;4965105;28;20026;-77
2021/01/15 08:20:23;;;;;;;0.00;0.00;;;;;;;;;;4963289;28;20505;-78
2021/01/15 08:22:50;;;;;;;0.00;0.00;;;;;;;;;;4953171;28;20121;-76
2021/01/15 08:25:26;;;;;;;0.30;0.30;;;;;;;;;;4977942;28;20042;-76
2021/01/15 08:27:52;;;;;;;0.00;0.00;;;;;;;;;;4965727;28;20502;-76
2021/01/15 08:30:18;;;;;;;0.00;0.00;;;;;;;;;;4966774;28;20073;-76
2021/01/15 08:32:44;;;;;;;0.00;0.00;;;;;;;;;;4965099;28;20112;-76
2021/01/15 08:35:11;;;;;;;0.00;0.00;;;;;;;;;;4982056;28;20030;-77
2021/01/15 08:37:39;;;;;;;0.00;0.00;;;;;;;;;;4984001;28;20034;-75
2021/01/15 08:40:06;;;;;;;0.00;0.00;;;;;;;;;;4966893;28;20462;-77
2021/01/15 08:42:32;;;;;;;0.00;0.00;;;;;;;;;;4967766;28;20041;-78
2021/01/15 08:44:58;;;;;;;2.38;0.80;;;;;;;;;;4981106;28;20479;-76
2021/01/15 08:47:24;;;;;;;0.00;0.00;;;;;;;;;;4966264;28;20616;-76
2021/01/15 08:49:54;;;;;;;0.00;0.00;;;;;;;;;;4975075;28;20041;-76
2021/01/15 08:52:24;;;;;;;0.00;0.00;;;;;;;;;;4979600;28;20038;-76
2021/01/15 08:54:50;;;;;;;0.00;0.00;;;;;;;;;;4975100;28;20487;-76
2021/01/15 08:57:16;;;;;;;0.10;0.10;;;;;;;;;;4977597;28;20045;-76
2021/01/15 08:59:42;;;;;;;0.00;0.00;;;;;;;;;;4974698;28;20540;-76
2021/01/15 09:02:09;;;;;;;0.00;0.00;;;;;;;;;;4978342;28;20126;-76
2021/01/15 09:04:35;;;;;;;0.00;0.00;;;;;;;;;;4953199;28;20038;-76
2021/01/15 09:07:02;;;;;;;0.32;0.32;;;;;;;;;;4968755;28;20582;-77
2021/01/15 09:09:28;;;;;;;0.00;0.00;;;;;;;;;;4964111;28;20027;-78
2021/01/15 09:11:54;;;;;;;0.00;0.00;;;;;;;;;;4978112;28;20038;-76
2021/01/15 09:14:21;;;;;;;0.00;0.00;;;;;;;;;;4967704;28;20030;-78
2021/01/15 09:16:51;;;;;;;0.10;0.10;;;;;;;;;;4971999;28;20811;-76
2021/01/15 09:19:17;;;;;;;0.05;0.05;;;;;;;;;;4966546;28;20027;-76
2021/01/15 09:21:46;;;;;;;0.00;0.00;;;;;;;;;;4953472;28;20031;-76
2021/01/15 09:24:13;;;;;;;0.00;0.00;;;;;;;;;;4963308;28;20035;-76
2021/01/15 09:26:39;;;;;;;0.00;0.00;;;;;;;;;;4981714;28;20042;-75
2021/01/15 09:29:05;;;;;;;0.00;0.00;;;;;;;;;;4953041;28;20085;-78
2021/01/15 09:31:32;;;;;;;0.00;0.00;;;;;;;;;;4980034;28;20508;-76
2021/01/15 09:33:58;;;;;;;0.00;0.00;;;;;;;;;;4965598;28;20042;-75
2021/01/15 09:36:25;;;;;;;0.00;0.00;;;;;;;;;;4967659;28;20022;-76
2021/01/15 09:38:55;;;;;;;0.05;0.05;;;;;;;;;;4982087;28;20042;-76
2021/01/15 09:41:21;;;;;;;0.00;0.00;;;;;;;;;;4949707;28;20467;-79
2021/01/15 09:43:47;;;;;;;0.00;0.00;;;;;;;;;;4960445;28;20062;-77
2021/01/15 09:46:23;;;;;;;0.00;0.00;;;;;;;;;;4980761;28;20069;-75
2021/01/15 09:48:49;;;;;;;0.00;0.00;;;;;;;;;;4975787;28;20064;-77
2021/01/15 09:51:16;;;;;;;0.00;0.00;;;;;;;;;;4945227;28;20453;-77
2021/01/15 09:53:42;;;;;;;0.00;0.00;;;;;;;;;;4944801;28;20077;-76
2021/01/15 09:56:08;;;;;;;0.00;0.00;;;;;;;;;;4976702;28;20076;-76
2021/01/15 09:58:34;;;;;;;0.00;0.00;;;;;;;;;;4964211;28;20046;-76
2021/01/15 10:01:00;;;;;;;0.00;0.00;;;;;;;;;;4962720;28;20034;-76
2021/01/15 10:03:26;;;;;;;1.65;1.23;;;;;;;;;;4978238;28;20050;-80
2021/01/15 10:05:52;;;;;;;0.10;0.10;;;;;;;;;;4965860;28;20756;-76
2021/01/15 10:08:23;;;;;;;0.00;0.00;;;;;;;;;;4962081;28;20030;-77
2021/01/15 10:10:49;;;;;;;0.43;0.43;;;;;;;;;;4964725;28;20320;-77
2021/01/15 10:13:15;;;;;;;0.00;0.00;;;;;;;;;;4948131;28;20612;-77
2021/01/15 10:15:41;;;;;;;0.00;0.00;;;;;;;;;;4946898;28;20025;-77
2021/01/15 10:18:07;;;;;;;0.00;0.00;;;;;;;;;;4962992;28;20049;-83
2021/01/15 10:20:34;;;;;;;0.00;0.00;;;;;;;;;;4977487;28;20039;-77
2021/01/15 10:23:00;;;;;;;0.00;0.00;;;;;;;;;;4954686;28;20038;-76
2021/01/15 10:25:26;;;;;;;0.00;0.00;;;;;;;;;;4976868;28;20407;-77
2021/01/15 10:27:52;;;;;;;0.00;0.00;;;;;;;;;;4978949;28;20507;-75
2021/01/15 10:30:18;;;;;;;0.00;0.00;;;;;;;;;;4943442;28;20098;-75
2021/01/15 10:32:47;;;;;;;0.20;0.20;;;;;;;;;;4983704;28;20041;-76
2021/01/15 10:35:14;;;;;;;0.00;0.00;;;;;;;;;;4978501;28;20037;-78
2021/01/15 10:37:40;;;;;;;0.00;0.00;;;;;;;;;;4950466;28;20038;-77
2021/01/15 10:40:08;;;;;;;0.03;0.03;;;;;;;;;;4951125;28;20122;-76
2021/01/15 10:42:37;;;;;;;0.00;0.00;;;;;;;;;;4981683;28;20041;-78
2021/01/15 10:45:04;;;;;;;0.00;0.00;;;;;;;;;;4981880;28;20034;-76
2021/01/15 10:47:30;;;;;;;0.00;0.00;;;;;;;;;;4965110;28;20092;-76
2021/01/15 10:49:56;;;;;;;0.00;0.00;;;;;;;;;;4975417;28;20113;-76
2021/01/15 10:52:22;;;;;;;0.03;0.03;;;;;;;;;;4967571;28;20032;-76
2021/01/15 10:54:48;;;;;;;0.20;0.20;;;;;;;;;;4980863;28;20117;-76
2021/01/15 10:57:14;;;;;;;0.00;0.00;;;;;;;;;;4983057;28;20137;-76
2021/01/15 10:59:41;;;;;;;0.00;0.00;;;;;;;;;;4964999;28;20458;-75
2021/01/15 11:02:07;;;;;;;0.60;0.60;;;;;;;;;;4966675;28;20549;-76
2021/01/15 11:04:33;;;;;;;0.10;0.10;;;;;;;;;;4964879;28;20738;-76
2021/01/15 11:07:01;;;;;;;0.10;0.10;;;;;;;;;;4977226;28;20049;-76
2021/01/15 11:09:27;;;;;;;0.15;0.15;;;;;;;;;;4964720;28;20033;-77
2021/01/15 11:11:53;;;;;;;0.08;0.08;;;;;;;;;;4980124;28;20121;-79
2021/01/15 11:14:19;;;;;;;0.05;0.05;;;;;;;;;;4950730;28;20133;-76
2021/01/15 11:16:45;;;;;;;0.20;0.20;;;;;;;;;;4982019;28;20113;-77
2021/01/15 11:19:11;;;;;;;0.00;0.00;;;;;;;;;;4968877;28;20038;-76
2021/01/15 11:21:37;;;;;;;0.10;0.10;;;;;;;;;;4966342;28;20397;-77
2021/01/15 11:24:04;;;;;;;0.40;0.20;;;;;;;;;;4962811;28;20431;-77
2021/01/15 11:26:31;;;;;;;0.00;0.00;;;;;;;;;;4963952;28;21445;-77
2021/01/15 11:28:58;;;;;;;0.08;0.08;;;;;;;;;;4961870;28;20042;-76
2021/01/15 11:31:24;;;;;;;0.00;0.00;;;;;;;;;;4948756;28;20034;-76
2021/01/15 11:33:50;;;;;;;0.00;0.00;;;;;;;;;;4967215;28;20031;-77
2021/01/15 11:36:17;;;;;;;0.43;0.10;;;;;;;;;;4948509;28;20459;-77
2021/01/15 11:38:43;;;;;;;0.00;0.00;;;;;;;;;;4962678;28;20045;-76
2021/01/15 11:41:10;;;;;;;0.10;0.10;;;;;;;;;;4961036;28;20045;-77
2021/01/15 11:43:36;;;;;;;0.00;0.00;;;;;;;;;;4962680;28;20301;-77
2021/01/15 11:46:03;;;;;;;0.15;0.10;;;;;;;;;;4964931;28;20115;-76
2021/01/15 11:48:29;;;;;;;0.00;0.00;;;;;;;;;;4968039;28;20037;-77
2021/01/15 11:50:58;;;;;;;0.00;0.00;;;;;;;;;;4963052;28;20030;-77
2021/01/15 11:53:25;;;;;;;0.10;0.10;;;;;;;;;;4965016;28;20030;-77
2021/01/15 11:55:51;;;;;;;0.00;0.00;;;;;;;;;;4975201;28;20736;-77
2021/01/15 11:58:17;;;;;;;0.00;0.00;;;;;;;;;;4961211;28;20446;-76
2021/01/15 12:00:43;;;;;;;0.00;0.00;;;;;;;;;;4976790;28;20089;-77
2021/01/15 12:03:09;;;;;;;0.00;0.00;;;;;;;;;;4964404;28;20037;-76
2021/01/15 12:05:42;;;;;;;0.08;0.08;;;;;;;;;;4977288;28;20073;-77
2021/01/15 12:08:08;;;;;;;0.25;0.25;;;;;;;;;;4981286;28;20027;-77
2021/01/15 12:10:34;;;;;;;0.10;0.10;;;;;;;;;;4964630;28;20551;-77
2021/01/15 12:13:00;;;;;;;0.57;0.57;;;;;;;;;;4980750;28;20061;-79
2021/01/15 12:15:26;;;;;;;0.00;0.00;;;;;;;;;;4962087;28;20129;-77
2021/01/15 12:17:52;;;;;;;0.10;0.10;;;;;;;;;;4976678;28;20034;-76
2021/01/15 12:20:18;;;;;;;1.08;0.85;;;;;;;;;;4943236;28;20031;-76
2021/01/15 12:22:47;;;;;;;0.30;0.30;;;;;;;;;;4974129;28;20034;-77
2021/01/15 12:25:13;;;;;;;0.20;0.20;;;;;;;;;;4976157;28;20046;-75
2021/01/15 12:27:40;;;;;;;0.00;0.00;;;;;;;;;;4975288;28;20062;-76
2021/01/15 12:30:10;;;;;;;0.00;0.00;;;;;;;;;;4961334;28;20034;-76
2021/01/15 12:32:36;;;;;;;0.10;0.10;;;;;;;;;;4960116;28;20026;-77
2021/01/15 12:35:02;;;;;;;0.00;0.00;;;;;;;;;;4978626;28;20181;-77
2021/01/15 12:37:29;;;;;;;0.00;0.00;;;;;;;;;;4962353;28;20031;-77
2021/01/15 12:39:55;;;;;;;0.10;0.10;;;;;;;;;;4959083;28;20061;-77
2021/01/15 12:42:21;;;;;;;0.10;0.10;;;;;;;;;;4956272;28;20089;-77
2021/01/15 12:44:48;;;;;;;0.00;0.00;;;;;;;;;;4957150;28;20057;-79
2021/01/15 12:47:15;;;;;;;0.22;0.22;;;;;;;;;;4974168;28;20034;-78
2021/01/15 12:49:42;;;;;;;0.98;0.75;;;;;;;;;;4978420;28;20026;-79
2021/01/15 12:52:08;;;;;;;0.20;0.20;;;;;;;;;;4965615;28;20084;-78
2021/01/15 12:54:34;;;;;;;0.10;0.10;;;;;;;;;;4965996;28;20026;-78
2021/01/15 12:57:00;;;;;;;0.00;0.00;;;;;;;;;;4978975;28;20395;-78
2021/01/15 12:59:26;;;;;;;0.00;0.00;;;;;;;;;;4966637;28;20145;-79
2021/01/15 13:01:52;;;;;;;0.00;0.00;;;;;;;;;;4967199;28;20034;-78
2021/01/15 13:04:18;;;;;;;0.00;0.00;;;;;;;;;;4957950;28;20210;-78
2021/01/15 13:06:44;;;;;;;0.00;0.00;;;;;;;;;;4970248;28;20439;-78
2021/01/15 13:09:10;;;;;;;0.10;0.10;;;;;;;;;;4960343;28;20034;-77
2021/01/15 13:11:37;;;;;;;0.00;0.00;;;;;;;;;;4958201;28;20034;-78
2021/01/15 13:14:03;;;;;;;0.10;0.10;;;;;;;;;;4955848;28;20113;-77
2021/01/15 13:16:30;;;;;;;0.00;0.00;;;;;;;;;;4957780;28;20031;-76
2021/01/15 13:18:56;;;;;;;0.00;0.00;;;;;;;;;;4947863;28;20080;-79
2021/01/15 13:21:22;;;;;;;0.60;0.60;;;;;;;;;;4975165;28;20030;-80
2021/01/15 13:23:49;;;;;;;0.03;0.03;;;;;;;;;;4977917;28;20037;-80
2021/01/15 13:26:15;;;;;;;0.00;0.00;;;;;;;;;;4961843;28;20561;-80
2021/01/15 13:28:41;;;;;;;0.00;0.00;;;;;;;;;;4949833;28;20050;-78
2021/01/15 13:31:07;;;;;;;0.00;0.00;;;;;;;;;;4964032;28;20392;-81
2021/01/15 13:33:33;;;;;;;0.00;0.00;;;;;;;;;;4965486;28;20503;-77
2021/01/15 13:36:00;;;;;;;0.00;0.00;;;;;;;;;;4961196;28;20038;-78
2021/01/15 13:38:27;;;;;;;0.00;0.00;;;;;;;;;;4970838;28;20153;-78
2021/01/15 13:40:53;;;;;;;0.63;0.63;;;;;;;;;;4947150;28;20588;-77
2021/01/15 13:43:21;;;;;;;0.00;0.00;;;;;;;;;;4959343;28;20542;-77
2021/01/15 13:45:47;;;;;;;0.82;0.75;;;;;;;;;;4962902;28;20545;-77
2021/01/15 13:48:13;;;;;;;0.00;0.00;;;;;;;;;;4962062;28;20254;-76
2021/01/15 13:50:48;;;;;;;0.28;0.28;;;;;;;;;;4948262;28;20034;-78
2021/01/15 13:53:16;;;;;;;0.00;0.00;;;;;;;;;;4964856;28;20038;-77
2021/01/15 13:55:43;;;;;;;0.00;0.00;;;;;;;;;;4978097;28;20026;-78
2021/01/15 13:58:09;;;;;;;0.00;0.00;;;;;;;;;;4984622;28;20090;-77
2021/01/15 14:00:35;;;;;;;0.10;0.10;;;;;;;;;;4968605;28;20037;-77
2021/01/15 14:03:04;;;;;;;0.00;0.00;;;;;;;;;;4982015;28;20030;-76
2021/01/15 14:05:30;;;;;;;0.00;0.00;;;;;;;;;;4983999;28;20381;-78
2021/01/15 14:07:57;;;;;;;0.00;0.00;;;;;;;;;;4966470;28;20120;-79
2021/01/15 14:10:22;;;;;;;0.00;0.00;;;;;;;;;;4977381;28;20026;-79
2021/01/15 14:12:49;;;;;;;0.00;0.00;;;;;;;;;;4950700;28;20041;-77
2021/01/15 14:15:15;;;;;;;0.05;0.05;;;;;;;;;;4977749;28;20037;-77
2021/01/15 14:17:42;;;;;;;0.00;0.00;;;;;;;;;;4961130;28;20333;-78
2021/01/15 14:20:08;;;;;;;0.20;0.20;;;;;;;;;;4980824;28;20026;-79
2021/01/15 14:22:34;;;;;;;0.00;0.00;;;;;;;;;;4952236;28;20495;-80
2021/01/15 14:25:00;;;;;;;0.00;0.00;;;;;;;;;;4962948;28;20022;-79
2021/01/15 14:27:26;;;;;;;0.10;0.10;;;;;;;;;;4942104;28;20104;-77
2021/01/15 14:29:52;;;;;;;0.00;0.00;;;;;;;;;;4982101;28;20438;-78
2021/01/15 14:32:18;;;;;;;0.00;0.00;;;;;;;;;;4983492;28;20053;-78
2021/01/15 14:34:45;;;;;;;0.00;0.00;;;;;;;;;;4948402;28;20038;-79
2021/01/15 14:37:13;;;;;;;0.50;0.50;;;;;;;;;;4982116;28;20514;-77
2021/01/15 14:39:39;;;;;;;0.00;0.00;;;;;;;;;;4977142;28;20037;-78
2021/01/15 14:42:06;;;;;;;0.00;0.00;;;;;;;;;;4976369;28;20358;-77
2021/01/15 14:44:32;;;;;;;0.00;0.00;;;;;;;;;;4961767;28;20049;-78
2021/01/15 14:47:04;;;;;;;0.00;0.00;;;;;;;;;;4978534;28;20039;-78